createdAt,value
2023-02-17T00:01:30.737Z,0.38
2023-02-17T00:03:57.608Z,0.32
2023-02-17T00:06:26.815Z,0.11
2023-02-17T00:08:53.761Z,0.20
2023-02-17T00:11:20.739Z,0.25
2023-02-17T00:13:47.666Z,0.32
2023-02-17T00:16:22.343Z,0.26
2023-02-17T00:18:54.213Z,0.36
2023-02-17T00:21:22.896Z,0.33
2023-02-17T00:23:50.453Z,-0.11
2023-02-17T00:26:18.290Z,0.40
2023-02-17T00:28:45.272Z,0.35
2023-02-17T00:31:17.546Z,0.41
2023-02-17T00:33:44.309Z,0.35
2023-02-17T00:36:13.139Z,-0.18
2023-02-17T00:38:39.899Z,0.41
2023-02-17T00:41:06.739Z,0.37
2023-02-17T00:43:33.667Z,0.25
2023-02-17T00:46:00.320Z,0.17
2023-02-17T00:48:26.996Z,0.00
2023-02-17T00:50:53.534Z,0.15
2023-02-17T00:53:20.139Z,0.02
2023-02-17T00:55:46.962Z,0.03
2023-02-17T00:58:13.598Z,0.02
2023-02-17T01:00:40.138Z,-0.05
2023-02-17T01:03:06.711Z,-0.52
2023-02-17T01:05:33.686Z,-0.14
2023-02-17T01:08:00.385Z,0.03
2023-02-17T01:10:26.995Z,-0.29
2023-02-17T01:12:53.553Z,0.00
2023-02-17T01:15:20.226Z,-0.32
2023-02-17T01:17:46.937Z,0.09
2023-02-17T01:20:13.723Z,0.04
2023-02-17T01:22:40.409Z,0.00
2023-02-17T01:25:07.279Z,-0.07
2023-02-17T01:27:34.692Z,-0.03
2023-02-17T01:30:01.356Z,-0.71
2023-02-17T01:32:27.988Z,-0.05
2023-02-17T01:34:54.587Z,0.00
2023-02-17T01:37:21.137Z,0.06
2023-02-17T01:39:47.807Z,0.08
2023-02-17T01:42:20.805Z,-0.75
2023-02-17T01:45:29.240Z,0.10
2023-02-17T01:48:21.432Z,0.00
2023-02-17T01:51:14.307Z,-0.06
2023-02-17T01:54:04.597Z,0.00
2023-02-17T01:56:33.846Z,-0.01
2023-02-17T01:59:07.883Z,0.08
2023-02-17T02:01:35.271Z,0.05
2023-02-17T02:04:04.603Z,-0.05
2023-02-17T02:06:33.998Z,-0.09
2023-02-17T02:09:08.045Z,-0.02
2023-02-17T02:11:36.008Z,-0.07
2023-02-17T02:14:04.795Z,-0.36
2023-02-17T02:16:54.868Z,0.09
2023-02-17T02:19:43.201Z,0.02
2023-02-17T02:22:34.297Z,-0.01
2023-02-17T02:25:19.802Z,-0.23
2023-02-17T02:27:51.676Z,-0.23
2023-02-17T02:30:53.336Z,-0.12
2023-02-17T02:33:32.015Z,-0.32
2023-02-17T02:36:13.036Z,-0.39
2023-02-17T02:38:58.618Z,-0.73
2023-02-17T02:41:34.311Z,-0.95
2023-02-17T02:44:04.921Z,-0.23
2023-02-17T02:46:31.560Z,-0.90
2023-02-17T02:48:58.468Z,-0.23
2023-02-17T02:51:56.006Z,-0.21
2023-02-17T02:54:40.665Z,-0.46
2023-02-17T02:57:10.223Z,-0.48
2023-02-17T02:59:48.775Z,-0.44
2023-02-17T03:02:27.455Z,-1.01
2023-02-17T03:05:35.100Z,-0.42
2023-02-17T03:08:12.944Z,-0.40
2023-02-17T03:10:48.620Z,-0.54
2023-02-17T03:13:16.186Z,-0.32
2023-02-17T03:15:43.303Z,-0.35
2023-02-17T03:18:09.976Z,-0.47
2023-02-17T03:20:40.154Z,-0.84
2023-02-17T03:23:08.149Z,-0.51
2023-02-17T03:25:34.751Z,-0.45
2023-02-17T03:28:01.400Z,-0.50
2023-02-17T03:30:28.371Z,-0.32
2023-02-17T03:32:55.246Z,-0.43
2023-02-17T03:35:21.965Z,-0.85
2023-02-17T03:37:48.658Z,-0.29
2023-02-17T03:40:15.380Z,-0.70
2023-02-17T03:42:41.964Z,-0.39
2023-02-17T03:45:08.942Z,-0.39
2023-02-17T03:47:35.550Z,-0.75
2023-02-17T03:50:02.184Z,-0.89
2023-02-17T03:52:28.770Z,-1.20
2023-02-17T03:54:55.330Z,-0.63
2023-02-17T03:57:21.895Z,-0.72
2023-02-17T03:59:48.501Z,-0.74
2023-02-17T04:02:15.143Z,-1.14
2023-02-17T04:04:41.697Z,-1.01
2023-02-17T04:07:08.321Z,-1.01
2023-02-17T04:09:34.983Z,-1.27
2023-02-17T04:12:01.607Z,-2.08
2023-02-17T04:14:28.178Z,-1.57
2023-02-17T04:16:54.732Z,-1.36
2023-02-17T04:19:21.424Z,-1.15
2023-02-17T04:21:48.173Z,-1.14
2023-02-17T04:24:14.803Z,-1.10
2023-02-17T04:26:41.385Z,-1.01
2023-02-17T04:29:08.058Z,-1.73
2023-02-17T04:31:34.768Z,-1.67
2023-02-17T04:34:01.408Z,-1.36
2023-02-17T04:36:28.107Z,-1.32
2023-02-17T04:38:54.712Z,-2.00
2023-02-17T04:41:21.387Z,-1.32
2023-02-17T04:43:48.036Z,-1.31
2023-02-17T04:46:14.746Z,-1.16
2023-02-17T04:48:41.342Z,-1.12
2023-02-17T04:51:07.987Z,-1.55
2023-02-17T04:53:34.591Z,-1.16
2023-02-17T04:56:01.260Z,-1.50
2023-02-17T04:58:27.988Z,-1.13
2023-02-17T05:00:54.596Z,-0.92
2023-02-17T05:03:21.301Z,-0.92
2023-02-17T05:05:47.916Z,-0.90
2023-02-17T05:08:14.584Z,-0.91
2023-02-17T05:10:41.122Z,-1.17
2023-02-17T05:13:07.712Z,-0.74
2023-02-17T05:15:35.146Z,-0.66
2023-02-17T05:18:02.107Z,-1.16
2023-02-17T05:20:28.972Z,-0.81
2023-02-17T05:22:55.552Z,-0.85
2023-02-17T05:25:22.169Z,-0.84
2023-02-17T05:27:48.862Z,-0.99
2023-02-17T05:30:15.727Z,-0.77
2023-02-17T05:32:42.361Z,-0.74
2023-02-17T05:35:09.339Z,-0.81
2023-02-17T05:37:36.116Z,-0.90
2023-02-17T05:40:02.813Z,-0.55
2023-02-17T05:42:29.503Z,-0.50
2023-02-17T05:44:56.429Z,-0.86
2023-02-17T05:47:23.859Z,-0.43
2023-02-17T05:49:50.717Z,-0.27
2023-02-17T05:52:18.344Z,-0.21
2023-02-17T05:54:45.346Z,0.02
2023-02-17T05:57:12.065Z,-0.20
2023-02-17T05:59:38.739Z,0.03
2023-02-17T06:02:05.384Z,0.49
2023-02-17T06:04:32.373Z,0.68
2023-02-17T06:06:58.936Z,0.57
2023-02-17T06:09:25.598Z,0.79
2023-02-17T06:11:52.255Z,1.02
2023-02-17T06:14:19.028Z,0.65
2023-02-17T06:16:45.620Z,1.29
2023-02-17T06:19:12.204Z,1.20
2023-02-17T06:21:38.803Z,0.71
2023-02-17T06:24:06.071Z,1.11
2023-02-17T06:26:32.689Z,1.78
2023-02-17T06:28:59.262Z,1.73
2023-02-17T06:31:26.131Z,1.91
2023-02-17T06:33:52.791Z,1.80
2023-02-17T06:36:19.483Z,1.58
2023-02-17T06:38:46.054Z,2.22
2023-02-17T06:41:12.641Z,2.20
2023-02-17T06:43:39.236Z,2.46
2023-02-17T06:46:06.214Z,2.55
2023-02-17T06:48:35.930Z,2.62
2023-02-17T06:51:02.527Z,2.45
2023-02-17T06:53:29.124Z,2.33
2023-02-17T06:55:56.095Z,2.91
2023-02-17T06:58:22.790Z,1.96
2023-02-17T07:00:49.407Z,2.46
2023-02-17T07:03:15.987Z,3.07
2023-02-17T07:05:42.620Z,2.26
2023-02-17T07:08:09.269Z,2.21
2023-02-17T07:10:37.934Z,2.57
2023-02-17T07:13:04.664Z,2.44
2023-02-17T07:15:31.396Z,2.59
2023-02-17T07:17:58.077Z,2.00
2023-02-17T07:20:24.651Z,2.81
2023-02-17T07:22:51.273Z,2.98
2023-02-17T07:25:17.908Z,3.22
2023-02-17T07:27:44.498Z,3.24
2023-02-17T07:30:11.621Z,3.61
2023-02-17T07:32:38.218Z,4.25
2023-02-17T07:35:05.117Z,3.86
2023-02-17T07:37:31.806Z,4.90
2023-02-17T07:39:58.444Z,5.05
2023-02-17T07:42:27.472Z,5.24
2023-02-17T07:44:54.104Z,5.23
2023-02-17T07:47:20.688Z,5.57
2023-02-17T07:49:47.271Z,5.93
2023-02-17T07:52:17.179Z,6.24
2023-02-17T07:54:43.857Z,6.67
2023-02-17T07:57:10.439Z,6.91
2023-02-17T07:59:37.007Z,6.88
2023-02-17T08:02:03.851Z,7.19
2023-02-17T08:04:30.546Z,7.01
2023-02-17T08:06:57.162Z,7.83
2023-02-17T08:09:42.361Z,8.04
2023-02-17T08:12:35.761Z,8.35
2023-02-17T08:15:02.480Z,7.93
2023-02-17T08:17:29.766Z,8.33
2023-02-17T08:19:56.747Z,9.31
2023-02-17T08:22:23.320Z,9.64
2023-02-17T08:24:50.797Z,9.91
2023-02-17T08:27:18.436Z,10.10
2023-02-17T08:29:45.777Z,10.24
2023-02-17T08:32:14.270Z,10.54
2023-02-17T08:34:41.034Z,10.58
2023-02-17T08:37:08.352Z,10.67
2023-02-17T08:39:36.077Z,10.26
2023-02-17T08:42:04.332Z,10.76
2023-02-17T08:44:33.492Z,11.12
2023-02-17T08:47:00.018Z,11.31
2023-02-17T08:49:28.542Z,11.82
2023-02-17T08:51:55.645Z,12.11
2023-02-17T08:54:22.281Z,12.10
2023-02-17T08:56:48.942Z,12.28
2023-02-17T08:59:15.692Z,12.50
2023-02-17T09:01:43.197Z,12.49
2023-02-17T09:04:13.027Z,13.04
2023-02-17T09:06:51.773Z,12.58
2023-02-17T09:09:22.661Z,12.98
2023-02-17T09:11:49.683Z,12.96
2023-02-17T09:14:16.420Z,13.49
2023-02-17T09:16:43.117Z,13.17
2023-02-17T09:19:09.881Z,13.38
2023-02-17T09:21:36.917Z,13.43
2023-02-17T09:24:03.877Z,13.29
2023-02-17T09:26:30.502Z,13.57
2023-02-17T09:28:58.062Z,13.64
2023-02-17T09:31:29.722Z,13.96
2023-02-17T09:33:56.697Z,12.92
2023-02-17T09:36:26.343Z,13.74
2023-02-17T09:38:54.013Z,13.79
2023-02-17T09:41:38.125Z,13.78
2023-02-17T09:44:26.030Z,14.02
2023-02-17T09:47:05.519Z,14.41
2023-02-17T09:49:51.071Z,14.60
2023-02-17T09:52:41.111Z,14.87
2023-02-17T09:55:25.148Z,14.67
2023-02-17T09:57:58.917Z,15.14
2023-02-17T10:00:56.652Z,15.34
2023-02-17T10:03:31.053Z,15.30
2023-02-17T10:06:19.233Z,15.31
2023-02-17T10:08:57.061Z,15.55
2023-02-17T10:11:30.084Z,15.63
2023-02-17T10:14:01.579Z,15.44
2023-02-17T10:16:38.213Z,16.19
2023-02-17T10:19:16.464Z,16.00
2023-02-17T10:21:51.096Z,15.14
2023-02-17T10:24:17.777Z,15.75
2023-02-17T10:26:50.462Z,16.07
2023-02-17T10:29:51.488Z,16.50
2023-02-17T10:32:26.932Z,16.46
2023-02-17T10:35:18.274Z,16.26
2023-02-17T10:37:44.806Z,16.72
2023-02-17T10:40:23.200Z,16.51
2023-02-17T10:42:54.978Z,17.05
2023-02-17T10:45:31.416Z,17.07
2023-02-17T10:48:07.888Z,16.68
2023-02-17T10:50:36.806Z,17.60
2023-02-17T10:53:14.403Z,17.62
2023-02-17T10:55:49.432Z,17.58
2023-02-17T10:58:48.647Z,17.84
2023-02-17T11:01:15.473Z,17.35
2023-02-17T11:03:42.229Z,17.81
2023-02-17T11:06:41.752Z,17.87
2023-02-17T11:09:20.637Z,17.77
2023-02-17T11:12:10.260Z,17.48
2023-02-17T11:14:37.886Z,18.09
2023-02-17T11:17:15.140Z,18.27
2023-02-17T11:19:41.762Z,18.39
2023-02-17T11:22:31.971Z,18.59
2023-02-17T11:25:06.561Z,18.75
2023-02-17T11:27:33.276Z,18.75
2023-02-17T11:30:16.389Z,18.95
2023-02-17T11:32:43.033Z,18.91
2023-02-17T11:35:21.103Z,18.48
2023-02-17T11:37:47.809Z,18.20
2023-02-17T11:40:26.693Z,18.81
2023-02-17T11:43:01.281Z,18.68
2023-02-17T11:45:44.871Z,18.85
2023-02-17T11:48:59.114Z,18.96
2023-02-17T11:51:33.478Z,18.50
2023-02-17T11:54:31.661Z,18.88
2023-02-17T11:57:07.050Z,18.87
2023-02-17T12:00:01.151Z,18.78
2023-02-17T12:02:55.426Z,18.78
2023-02-17T12:05:33.452Z,18.89
2023-02-17T12:08:17.582Z,19.01
2023-02-17T12:11:06.088Z,19.14
2023-02-17T12:13:51.095Z,19.24
2023-02-17T12:16:35.739Z,19.08
2023-02-17T12:19:31.259Z,19.01
2023-02-17T12:22:18.023Z,18.84
2023-02-17T12:25:10.147Z,18.67
2023-02-17T12:27:43.134Z,18.44
2023-02-17T12:30:40.492Z,18.23
2023-02-17T12:33:21.521Z,17.76
2023-02-17T12:36:02.675Z,18.17
2023-02-17T12:38:35.514Z,18.16
2023-02-17T12:41:04.073Z,18.05
2023-02-17T12:43:44.414Z,18.01
2023-02-17T12:46:23.755Z,17.88
2023-02-17T12:48:54.254Z,17.83
2023-02-17T12:51:20.780Z,17.89
2023-02-17T12:54:05.827Z,17.66
2023-02-17T12:56:57.237Z,17.92
2023-02-17T12:59:33.290Z,17.80
2023-02-17T13:02:07.346Z,17.54
2023-02-17T13:04:36.139Z,17.94
2023-02-17T13:07:08.475Z,17.93
2023-02-17T13:09:39.957Z,17.84
2023-02-17T13:12:18.251Z,18.08
2023-02-17T13:14:50.136Z,18.01
2023-02-17T13:17:25.851Z,18.01
2023-02-17T13:20:10.384Z,17.94
2023-02-17T13:22:38.545Z,17.60
2023-02-17T13:25:05.773Z,17.85
2023-02-17T13:27:35.225Z,17.62
2023-02-17T13:30:10.081Z,17.62
2023-02-17T13:32:38.910Z,17.71
2023-02-17T13:35:36.379Z,17.83
2023-02-17T13:38:03.672Z,17.67
2023-02-17T13:40:30.365Z,17.80
2023-02-17T13:42:59.494Z,17.83
2023-02-17T13:45:29.239Z,17.78
2023-02-17T13:47:59.470Z,17.76
2023-02-17T13:50:37.880Z,17.72
2023-02-17T13:53:23.728Z,17.53
2023-02-17T13:55:50.363Z,17.80
2023-02-17T13:58:25.638Z,17.33
2023-02-17T14:00:53.403Z,17.91
2023-02-17T14:03:33.743Z,17.83
2023-02-17T14:06:02.257Z,17.65
2023-02-17T14:08:36.548Z,17.46
2023-02-17T14:11:18.092Z,17.21
2023-02-17T14:13:47.953Z,17.33
2023-02-17T14:16:38.077Z,17.28
2023-02-17T14:19:15.325Z,17.08
2023-02-17T14:21:45.491Z,17.11
2023-02-17T14:24:32.169Z,17.01
2023-02-17T14:27:13.964Z,16.88
2023-02-17T14:29:41.940Z,16.86
2023-02-17T14:32:31.041Z,16.75
2023-02-17T14:35:13.109Z,16.72
2023-02-17T14:37:41.536Z,16.35
2023-02-17T14:40:23.602Z,16.51
2023-02-17T14:42:50.780Z,16.40
2023-02-17T14:45:19.059Z,16.24
2023-02-17T14:47:47.069Z,16.33
2023-02-17T14:50:16.191Z,16.30
2023-02-17T14:52:46.432Z,16.21
2023-02-17T14:55:31.502Z,15.82
2023-02-17T14:57:58.284Z,15.68
2023-02-17T15:00:26.289Z,15.66
2023-02-17T15:02:54.273Z,15.59
2023-02-17T15:05:20.907Z,15.84
2023-02-17T15:07:47.953Z,15.53
2023-02-17T15:10:21.857Z,15.63
2023-02-17T15:12:48.629Z,15.68
2023-02-17T15:15:17.300Z,15.37
2023-02-17T15:17:44.528Z,15.21
2023-02-17T15:20:13.030Z,15.08
2023-02-17T15:22:42.052Z,14.46
2023-02-17T15:25:16.811Z,14.43
2023-02-17T15:27:44.105Z,14.14
2023-02-17T15:30:13.930Z,14.34
2023-02-17T15:32:41.033Z,14.13
2023-02-17T15:35:33.797Z,14.01
2023-02-17T15:38:00.337Z,13.85
2023-02-17T15:40:28.355Z,13.67
2023-02-17T15:43:03.564Z,13.57
2023-02-17T15:45:30.800Z,13.54
2023-02-17T15:48:12.873Z,13.54
2023-02-17T15:50:39.907Z,13.44
2023-02-17T15:53:06.502Z,13.28
2023-02-17T15:55:33.868Z,13.18
2023-02-17T15:58:05.017Z,12.99
2023-02-17T16:00:34.584Z,12.81
2023-02-17T16:03:01.329Z,12.28
2023-02-17T16:05:29.448Z,12.46
2023-02-17T16:07:56.650Z,12.24
2023-02-17T16:10:29.322Z,11.93
2023-02-17T16:12:58.301Z,11.81
2023-02-17T16:15:26.246Z,11.49
2023-02-17T16:17:53.402Z,11.38
2023-02-17T16:20:26.171Z,10.71
2023-02-17T16:22:52.852Z,11.09
2023-02-17T16:25:20.720Z,11.01
2023-02-17T16:27:49.927Z,10.91
2023-02-17T16:30:29.448Z,10.90
2023-02-17T16:32:56.790Z,10.65
2023-02-17T16:35:27.196Z,10.62
2023-02-17T16:37:58.538Z,10.52
2023-02-17T16:40:28.471Z,9.83
2023-02-17T16:42:55.273Z,10.19
2023-02-17T16:45:25.619Z,10.30
2023-02-17T16:48:00.721Z,10.00
2023-02-17T16:50:29.260Z,9.96
2023-02-17T16:52:58.704Z,9.61
2023-02-17T16:55:29.539Z,9.80
2023-02-17T16:57:56.960Z,9.67
2023-02-17T17:00:27.867Z,9.61
2023-02-17T17:02:54.629Z,9.48
2023-02-17T17:05:21.406Z,8.85
2023-02-17T17:07:48.393Z,9.33
2023-02-17T17:10:20.732Z,9.18
2023-02-17T17:12:47.462Z,9.08
2023-02-17T17:15:14.748Z,8.24
2023-02-17T17:17:51.696Z,8.79
2023-02-17T17:20:23.881Z,8.74
2023-02-17T17:22:51.458Z,8.45
2023-02-17T17:25:19.997Z,8.26
2023-02-17T17:27:46.624Z,8.27
2023-02-17T17:30:19.163Z,7.56
2023-02-17T17:32:46.194Z,8.33
2023-02-17T17:35:13.179Z,8.10
2023-02-17T17:37:39.827Z,8.11
2023-02-17T17:40:07.287Z,8.00
2023-02-17T17:42:35.291Z,7.22
2023-02-17T17:45:01.876Z,7.61
2023-02-17T17:47:30.393Z,7.71
2023-02-17T17:49:57.217Z,6.51
2023-02-17T17:52:24.318Z,7.42
2023-02-17T17:54:51.048Z,7.41
2023-02-17T17:57:17.643Z,7.47
2023-02-17T17:59:44.263Z,7.53
2023-02-17T18:02:10.829Z,7.42
2023-02-17T18:04:37.481Z,7.44
2023-02-17T18:07:04.327Z,7.13
2023-02-17T18:09:36.560Z,7.43
2023-02-17T18:12:09.685Z,7.37
2023-02-17T18:14:39.957Z,6.53
2023-02-17T18:17:09.399Z,6.93
2023-02-17T18:19:36.182Z,6.99
2023-02-17T18:22:02.978Z,7.06
2023-02-17T18:24:29.745Z,7.03
2023-02-17T18:26:56.458Z,7.00
2023-02-17T18:29:23.091Z,6.96
2023-02-17T18:31:49.742Z,6.41
2023-02-17T18:34:16.397Z,6.74
2023-02-17T18:36:43.144Z,6.72
2023-02-17T18:39:09.719Z,6.57
2023-02-17T18:41:37.021Z,6.43
2023-02-17T18:44:05.045Z,6.53
2023-02-17T18:46:33.328Z,6.36
2023-02-17T18:49:00.157Z,6.50
2023-02-17T18:51:27.760Z,6.43
2023-02-17T18:53:56.477Z,6.42
2023-02-17T18:56:27.422Z,6.41
2023-02-17T18:58:57.511Z,6.25
2023-02-17T19:01:27.607Z,6.24
2023-02-17T19:03:55.083Z,6.07
2023-02-17T19:06:28.793Z,6.23
2023-02-17T19:08:56.267Z,6.01
2023-02-17T19:11:24.495Z,6.05
2023-02-17T19:13:52.129Z,5.80
2023-02-17T19:16:25.800Z,5.71
2023-02-17T19:18:52.800Z,5.96
2023-02-17T19:21:19.838Z,5.97
2023-02-17T19:23:47.208Z,5.93
2023-02-17T19:26:15.267Z,5.57
2023-02-17T19:28:42.564Z,3.60
2023-02-17T19:31:12.860Z,5.68
2023-02-17T19:33:39.863Z,5.49
2023-02-17T19:36:12.178Z,4.77
2023-02-17T19:38:39.449Z,5.25
2023-02-17T19:41:07.988Z,5.02
2023-02-17T19:43:34.739Z,5.21
2023-02-17T19:46:01.501Z,4.96
2023-02-17T19:48:28.202Z,5.10
2023-02-17T19:51:03.795Z,5.39
2023-02-17T19:53:31.652Z,5.17
2023-02-17T19:56:12.718Z,4.98
2023-02-17T19:58:41.293Z,4.59
2023-02-17T20:01:13.611Z,4.66
2023-02-17T20:03:41.743Z,5.30
2023-02-17T20:06:11.028Z,5.18
2023-02-17T20:08:38.427Z,5.15
2023-02-17T20:11:07.949Z,5.02
2023-02-17T20:13:45.312Z,5.13
2023-02-17T20:16:14.610Z,4.29
2023-02-17T20:18:43.162Z,5.01
2023-02-17T20:21:11.922Z,4.73
2023-02-17T20:23:38.548Z,4.88
2023-02-17T20:26:08.067Z,4.54
2023-02-17T20:28:35.402Z,4.61
2023-02-17T20:31:02.671Z,4.78
2023-02-17T20:33:29.579Z,4.73
2023-02-17T20:35:56.148Z,4.59
2023-02-17T20:38:22.707Z,4.85
2023-02-17T20:40:49.443Z,4.80
2023-02-17T20:43:16.073Z,4.59
2023-02-17T20:45:43.448Z,4.43
2023-02-17T20:48:10.538Z,4.68
2023-02-17T20:50:37.711Z,4.63
2023-02-17T20:53:04.342Z,4.75
2023-02-17T20:55:30.959Z,4.36
2023-02-17T20:57:57.577Z,4.26
2023-02-17T21:00:26.366Z,4.74
2023-02-17T21:02:53.268Z,4.68
2023-02-17T21:05:24.860Z,4.53
2023-02-17T21:07:51.465Z,4.46
2023-02-17T21:10:24.539Z,4.33
2023-02-17T21:12:51.230Z,4.13
2023-02-17T21:15:18.159Z,4.17
2023-02-17T21:17:45.204Z,4.13
2023-02-17T21:20:15.133Z,4.15
2023-02-17T21:22:41.751Z,4.21
2023-02-17T21:25:09.211Z,4.30
2023-02-17T21:27:36.433Z,4.27
2023-02-17T21:30:07.532Z,4.22
2023-02-17T21:32:34.203Z,4.12
2023-02-17T21:35:00.973Z,4.19
2023-02-17T21:37:27.603Z,4.23
2023-02-17T21:39:54.327Z,4.11
2023-02-17T21:42:40.918Z,4.09
2023-02-17T21:45:07.851Z,4.09
2023-02-17T21:47:34.497Z,4.07
2023-02-17T21:50:01.342Z,4.19
2023-02-17T21:52:27.888Z,4.11
2023-02-17T21:54:54.649Z,3.59
2023-02-17T21:57:21.311Z,4.04
2023-02-17T21:59:47.974Z,4.01
2023-02-17T22:02:14.528Z,3.93
2023-02-17T22:04:41.178Z,3.96
2023-02-17T22:07:07.863Z,3.88
2023-02-17T22:09:34.478Z,3.95
2023-02-17T22:12:01.093Z,3.81
2023-02-17T22:14:27.937Z,3.78
2023-02-17T22:16:54.653Z,3.77
2023-02-17T22:19:25.230Z,3.68
2023-02-17T22:21:52.222Z,3.30
2023-02-17T22:24:20.833Z,3.52
2023-02-17T22:26:48.780Z,3.71
2023-02-17T22:29:15.490Z,3.53
2023-02-17T22:31:42.231Z,3.58
2023-02-17T22:34:11.921Z,3.41
2023-02-17T22:36:38.567Z,3.57
2023-02-17T22:39:06.750Z,3.37
2023-02-17T22:41:34.160Z,3.33
2023-02-17T22:44:02.090Z,3.00
2023-02-17T22:46:29.026Z,3.29
2023-02-17T22:48:56.383Z,2.46
2023-02-17T22:51:30.693Z,2.78
2023-02-17T22:53:58.053Z,2.80
2023-02-17T22:56:24.790Z,2.87
2023-02-17T22:58:55.861Z,2.60
2023-02-17T23:01:23.562Z,3.09
2023-02-17T23:03:53.933Z,2.89
2023-02-17T23:06:26.836Z,3.23
2023-02-17T23:08:54.004Z,3.40
2023-02-17T23:11:44.188Z,2.93
2023-02-17T23:14:12.085Z,2.71
2023-02-17T23:16:38.921Z,3.00
2023-02-17T23:19:07.379Z,2.83
2023-02-17T23:21:34.128Z,2.86
2023-02-17T23:24:00.708Z,3.24
2023-02-17T23:26:27.353Z,3.32
2023-02-17T23:28:53.910Z,3.09
2023-02-17T23:31:20.600Z,0.66
2023-02-17T23:33:47.318Z,3.11
2023-02-17T23:36:15.071Z,3.07
2023-02-17T23:38:41.791Z,2.91
2023-02-17T23:41:08.410Z,2.55
2023-02-17T23:43:34.990Z,2.87
2023-02-17T23:46:01.777Z,2.96
2023-02-17T23:48:28.373Z,2.82
2023-02-17T23:51:00.349Z,2.74
2023-02-17T23:53:28.124Z,2.84
2023-02-17T23:56:05.000Z,2.72
2023-02-17T23:58:32.127Z,2.83
